SWA18A KLAX-KSFO
Flight info
| Callsign | SWA18A |
|---|---|
| Flight time | 0h 54m |
| Altitude | 38000 |
| Route | KLAX SUMMR2 STOKD DCT SERFR SERFR4 KSFO |
| Aircraft | B738/L-L/FMC |
Departure
| Time | 2026-04-22 14:57 |
|---|---|
| Airport | Los Angeles International Airport (KLAX) |
Arrival
| Time | 2026-04-22 15:51 |
|---|---|
| Airport | San Francisco International Airport (KSFO) |
| Time | Latitude | Longitude | Altitude | Speed | Heading |
|---|---|---|---|---|---|
| 2026-04-22 14:36 | 33.94768 | -118.40061 | 125 ft | 0 kts | 243° |
| 2026-04-22 14:46 | 33.94769 | -118.40058 | 125 ft | 0 kts | 243° |
| 2026-04-22 14:46 | 33.94774 | -118.40044 | 121 ft | 2 kts | 265° |
| 2026-04-22 14:46 | 33.94773 | -118.40032 | 125 ft | 1 kts | 297° |
| 2026-04-22 14:47 | 33.94767 | -118.40017 | 125 ft | 1 kts | 316° |
| 2026-04-22 14:47 | 33.94758 | -118.40011 | 123 ft | 2 kts | 354° |
| 2026-04-22 14:47 | 33.94753 | -118.40011 | 123 ft | 0 kts | 4° |
| 2026-04-22 14:50 | 33.94768 | -118.40009 | 122 ft | 7 kts | 7° |
| 2026-04-22 14:50 | 33.94817 | -118.40007 | 123 ft | 7 kts | 347° |
| 2026-04-22 14:51 | 33.94846 | -118.40051 | 124 ft | 7 kts | 288° |
| 2026-04-22 14:51 | 33.94883 | -118.40080 | 123 ft | 7 kts | 350° |
| 2026-04-22 14:51 | 33.94920 | -118.40057 | 125 ft | 7 kts | 68° |
| 2026-04-22 14:51 | 33.94926 | -118.40001 | 125 ft | 7 kts | 82° |
| 2026-04-22 14:52 | 33.94937 | -118.39948 | 123 ft | 7 kts | 61° |
| 2026-04-22 14:52 | 33.94958 | -118.39922 | 124 ft | 0 kts | 34° |
| 2026-04-22 14:53 | 33.94995 | -118.39913 | 123 ft | 9 kts | 1° |
| 2026-04-22 14:53 | 33.95040 | -118.39952 | 122 ft | 9 kts | 277° |
| 2026-04-22 14:53 | 33.95040 | -118.39972 | 123 ft | 0 kts | 264° |
| 2026-04-22 14:56 | 33.95037 | -118.39999 | 125 ft | 22 kts | 263° |
| 2026-04-22 14:56 | 33.94985 | -118.40507 | 124 ft | 100 kts | 263° |
| 2026-04-22 14:56 | 33.94868 | -118.41618 | 126 ft | 165 kts | 264° |
| 2026-04-22 14:56 | 33.94716 | -118.43120 | 703 ft | 182 kts | 263° |
| 2026-04-22 14:57 | 33.94563 | -118.44626 | 1728 ft | 182 kts | 263° |
| 2026-04-22 14:57 | 33.94400 | -118.46259 | 2112 ft | 209 kts | 263° |
| 2026-04-22 14:57 | 33.94288 | -118.48090 | 2383 ft | 227 kts | 268° |
| 2026-04-22 14:57 | 33.94234 | -118.50016 | 2906 ft | 232 kts | 269° |
| 2026-04-22 14:58 | 33.94160 | -118.51973 | 3487 ft | 235 kts | 265° |
| 2026-04-22 14:58 | 33.94007 | -118.53934 | 4130 ft | 235 kts | 265° |
| 2026-04-22 14:58 | 33.93845 | -118.55896 | 4783 ft | 236 kts | 265° |
| 2026-04-22 14:58 | 33.93684 | -118.57874 | 5377 ft | 239 kts | 265° |
| 2026-04-22 14:59 | 33.93519 | -118.59944 | 5740 ft | 256 kts | 265° |
| 2026-04-22 14:59 | 33.93349 | -118.62094 | 6473 ft | 259 kts | 266° |
| 2026-04-22 14:59 | 33.93177 | -118.64262 | 7276 ft | 259 kts | 266° |
| 2026-04-22 14:59 | 33.93008 | -118.66424 | 8067 ft | 260 kts | 266° |
| 2026-04-22 15:00 | 33.92840 | -118.68599 | 8854 ft | 261 kts | 266° |
| 2026-04-22 15:00 | 33.92671 | -118.70781 | 9630 ft | 262 kts | 266° |
| 2026-04-22 15:00 | 33.92500 | -118.72977 | 10348 ft | 266 kts | 265° |
| 2026-04-22 15:00 | 33.92324 | -118.75247 | 10553 ft | 288 kts | 265° |
| 2026-04-22 15:01 | 33.92131 | -118.77737 | 10714 ft | 309 kts | 265° |
| 2026-04-22 15:01 | 33.91922 | -118.80403 | 10869 ft | 330 kts | 265° |
| 2026-04-22 15:01 | 33.91705 | -118.83226 | 11005 ft | 348 kts | 266° |
| 2026-04-22 15:01 | 33.91675 | -118.86218 | 11209 ft | 363 kts | 272° |
| 2026-04-22 15:02 | 33.91804 | -118.89271 | 11748 ft | 366 kts | 273° |
| 2026-04-22 15:02 | 33.91944 | -118.92344 | 12407 ft | 367 kts | 272° |
| 2026-04-22 15:02 | 33.92056 | -118.95410 | 13036 ft | 368 kts | 272° |
| 2026-04-22 15:02 | 33.92152 | -118.98510 | 13591 ft | 371 kts | 272° |
| 2026-04-22 15:03 | 33.92512 | -119.01597 | 14033 ft | 377 kts | 285° |
| 2026-04-22 15:03 | 33.93583 | -119.04473 | 14595 ft | 379 kts | 298° |
| 2026-04-22 15:03 | 33.95000 | -119.07161 | 15197 ft | 380 kts | 299° |
| 2026-04-22 15:03 | 33.96443 | -119.09859 | 15541 ft | 386 kts | 299° |
| 2026-04-22 15:04 | 33.97865 | -119.12564 | 15961 ft | 389 kts | 298° |
| 2026-04-22 15:04 | 33.99302 | -119.15335 | 16465 ft | 390 kts | 298° |
| 2026-04-22 15:04 | 34.00796 | -119.18076 | 16915 ft | 395 kts | 304° |
| 2026-04-22 15:04 | 34.02841 | -119.20379 | 17234 ft | 409 kts | 319° |
| 2026-04-22 15:05 | 34.05172 | -119.22312 | 17949 ft | 405 kts | 320° |
| 2026-04-22 15:05 | 34.07500 | -119.24262 | 18280 ft | 411 kts | 319° |
| 2026-04-22 15:05 | 34.09857 | -119.26264 | 18561 ft | 416 kts | 319° |
| 2026-04-22 15:05 | 34.12221 | -119.28285 | 18954 ft | 417 kts | 319° |
| 2026-04-22 15:06 | 34.14579 | -119.30309 | 19371 ft | 417 kts | 319° |
| 2026-04-22 15:06 | 34.16945 | -119.32346 | 19731 ft | 419 kts | 318° |
| 2026-04-22 15:06 | 34.19327 | -119.34401 | 20065 ft | 422 kts | 318° |
| 2026-04-22 15:06 | 34.21722 | -119.36469 | 20427 ft | 423 kts | 318° |
| 2026-04-22 15:07 | 34.24127 | -119.38546 | 20788 ft | 425 kts | 318° |
| 2026-04-22 15:07 | 34.26537 | -119.40628 | 21125 ft | 427 kts | 318° |
| 2026-04-22 15:07 | 34.28929 | -119.42696 | 21447 ft | 429 kts | 318° |
| 2026-04-22 15:07 | 34.31398 | -119.44832 | 21756 ft | 431 kts | 318° |
| 2026-04-22 15:08 | 34.33806 | -119.46918 | 22082 ft | 433 kts | 317° |
| 2026-04-22 15:08 | 34.36264 | -119.49047 | 22400 ft | 435 kts | 317° |
| 2026-04-22 15:08 | 34.38730 | -119.51184 | 22709 ft | 436 kts | 317° |
| 2026-04-22 15:08 | 34.41195 | -119.53346 | 23014 ft | 437 kts | 315° |
| 2026-04-22 15:09 | 34.43438 | -119.55778 | 23253 ft | 433 kts | 309° |
| 2026-04-22 15:09 | 34.45550 | -119.58383 | 23620 ft | 432 kts | 308° |
| 2026-04-22 15:09 | 34.47628 | -119.61025 | 23891 ft | 434 kts | 307° |
| 2026-04-22 15:09 | 34.49712 | -119.63682 | 24121 ft | 435 kts | 307° |
| 2026-04-22 15:10 | 34.51812 | -119.66335 | 24390 ft | 436 kts | 308° |
| 2026-04-22 15:10 | 34.53926 | -119.68981 | 24737 ft | 435 kts | 308° |
| 2026-04-22 15:10 | 34.56037 | -119.71602 | 25121 ft | 433 kts | 308° |
| 2026-04-22 15:10 | 34.58111 | -119.74166 | 25552 ft | 430 kts | 308° |
| 2026-04-22 15:11 | 34.60208 | -119.76755 | 25939 ft | 429 kts | 308° |
| 2026-04-22 15:11 | 34.62299 | -119.79338 | 26273 ft | 428 kts | 308° |
| 2026-04-22 15:11 | 34.64379 | -119.81909 | 26682 ft | 427 kts | 308° |
| 2026-04-22 15:11 | 34.66454 | -119.84476 | 27114 ft | 424 kts | 308° |
| 2026-04-22 15:12 | 34.68517 | -119.87028 | 27538 ft | 422 kts | 307° |
| 2026-04-22 15:12 | 34.70568 | -119.89571 | 27963 ft | 421 kts | 307° |
| 2026-04-22 15:12 | 34.72611 | -119.92106 | 28382 ft | 419 kts | 307° |
| 2026-04-22 15:12 | 34.74649 | -119.94637 | 28758 ft | 418 kts | 307° |
| 2026-04-22 15:13 | 34.76678 | -119.97159 | 29135 ft | 416 kts | 307° |
| 2026-04-22 15:13 | 34.78695 | -119.99666 | 29534 ft | 414 kts | 307° |
| 2026-04-22 15:13 | 34.80707 | -120.02169 | 29950 ft | 413 kts | 307° |
| 2026-04-22 15:13 | 34.82709 | -120.04660 | 30353 ft | 411 kts | 307° |
| 2026-04-22 15:14 | 34.84698 | -120.07136 | 30827 ft | 405 kts | 307° |
| 2026-04-22 15:14 | 34.86650 | -120.09562 | 31479 ft | 395 kts | 306° |
| 2026-04-22 15:14 | 34.88556 | -120.11936 | 32051 ft | 389 kts | 306° |
| 2026-04-22 15:14 | 34.90446 | -120.14301 | 32204 ft | 392 kts | 306° |
| 2026-04-22 15:15 | 34.94258 | -120.19086 | 32236 ft | 399 kts | 306° |
| 2026-04-22 15:15 | 34.98179 | -120.24000 | 32250 ft | 408 kts | 306° |
| 2026-04-22 15:16 | 35.02182 | -120.29018 | 32255 ft | 416 kts | 306° |
| 2026-04-22 15:16 | 35.06250 | -120.34122 | 32249 ft | 422 kts | 306° |
| 2026-04-22 15:17 | 35.10420 | -120.39257 | 32240 ft | 428 kts | 309° |
| 2026-04-22 15:17 | 35.14832 | -120.44186 | 32259 ft | 430 kts | 310° |
| 2026-04-22 15:18 | 35.19274 | -120.49081 | 32268 ft | 429 kts | 309° |
| 2026-04-22 15:18 | 35.23684 | -120.54001 | 32245 ft | 427 kts | 309° |
| 2026-04-22 15:19 | 35.28038 | -120.58897 | 32255 ft | 428 kts | 309° |
| 2026-04-22 15:19 | 35.32415 | -120.63831 | 32244 ft | 426 kts | 309° |
| 2026-04-22 15:20 | 35.36773 | -120.68750 | 32258 ft | 425 kts | 309° |
| 2026-04-22 15:20 | 35.41124 | -120.73669 | 32250 ft | 425 kts | 309° |
| 2026-04-22 15:21 | 35.45468 | -120.78586 | 32232 ft | 425 kts | 309° |
| 2026-04-22 15:21 | 35.49877 | -120.83431 | 32248 ft | 428 kts | 312° |
| 2026-04-22 15:22 | 35.54615 | -120.87842 | 32263 ft | 431 kts | 314° |
| 2026-04-22 15:22 | 35.59449 | -120.92204 | 32258 ft | 430 kts | 314° |
| 2026-04-22 15:23 | 35.64236 | -120.96597 | 32258 ft | 428 kts | 314° |
| 2026-04-22 15:23 | 35.68986 | -121.01012 | 32256 ft | 428 kts | 313° |
| 2026-04-22 15:24 | 35.73731 | -121.05443 | 32260 ft | 428 kts | 313° |
| 2026-04-22 15:24 | 35.78478 | -121.09882 | 32239 ft | 428 kts | 313° |
| 2026-04-22 15:25 | 35.83218 | -121.14320 | 32230 ft | 428 kts | 313° |
| 2026-04-22 15:25 | 35.87929 | -121.18731 | 32222 ft | 415 kts | 313° |
| 2026-04-22 15:26 | 35.90187 | -121.20835 | 32236 ft | 397 kts | 313° |
| 2026-04-22 15:26 | 35.92356 | -121.22861 | 32219 ft | 386 kts | 312° |
| 2026-04-22 15:26 | 35.96604 | -121.26874 | 31886 ft | 387 kts | 312° |
| 2026-04-22 15:27 | 35.98720 | -121.28876 | 31467 ft | 385 kts | 313° |
| 2026-04-22 15:27 | 36.00847 | -121.30883 | 30824 ft | 386 kts | 313° |
| 2026-04-22 15:27 | 36.02989 | -121.32902 | 30407 ft | 383 kts | 313° |
| 2026-04-22 15:27 | 36.05100 | -121.34890 | 29880 ft | 381 kts | 313° |
| 2026-04-22 15:28 | 36.07208 | -121.36854 | 29473 ft | 378 kts | 315° |
| 2026-04-22 15:28 | 36.09389 | -121.38661 | 29092 ft | 375 kts | 318° |
| 2026-04-22 15:28 | 36.11595 | -121.40363 | 28641 ft | 373 kts | 319° |
| 2026-04-22 15:28 | 36.13801 | -121.42034 | 28257 ft | 369 kts | 319° |
| 2026-04-22 15:29 | 36.15984 | -121.43692 | 27789 ft | 367 kts | 319° |
| 2026-04-22 15:29 | 36.18145 | -121.45349 | 27412 ft | 361 kts | 319° |
| 2026-04-22 15:29 | 36.20269 | -121.46986 | 26976 ft | 359 kts | 319° |
| 2026-04-22 15:30 | 36.23763 | -121.49702 | 26275 ft | 355 kts | 318° |
| 2026-04-22 15:30 | 36.26514 | -121.51850 | 25750 ft | 350 kts | 319° |
| 2026-04-22 15:30 | 36.28573 | -121.53461 | 25372 ft | 349 kts | 319° |
| 2026-04-22 15:30 | 36.30623 | -121.55067 | 24942 ft | 348 kts | 319° |
| 2026-04-22 15:31 | 36.32666 | -121.56668 | 24556 ft | 348 kts | 319° |
| 2026-04-22 15:31 | 36.34741 | -121.58301 | 24151 ft | 360 kts | 319° |
| 2026-04-22 15:31 | 36.36872 | -121.59978 | 23689 ft | 363 kts | 320° |
| 2026-04-22 15:31 | 36.39002 | -121.61646 | 23227 ft | 360 kts | 320° |
| 2026-04-22 15:32 | 36.41117 | -121.63301 | 22774 ft | 357 kts | 320° |
| 2026-04-22 15:32 | 36.43204 | -121.64936 | 22385 ft | 353 kts | 320° |
| 2026-04-22 15:32 | 36.45270 | -121.66559 | 21957 ft | 350 kts | 320° |
| 2026-04-22 15:32 | 36.47314 | -121.68166 | 21579 ft | 346 kts | 320° |
| 2026-04-22 15:33 | 36.49343 | -121.69762 | 21166 ft | 344 kts | 320° |
| 2026-04-22 15:33 | 36.51351 | -121.71346 | 20745 ft | 341 kts | 320° |
| 2026-04-22 15:33 | 36.53350 | -121.72925 | 20361 ft | 338 kts | 321° |
| 2026-04-22 15:33 | 36.55328 | -121.74488 | 19968 ft | 336 kts | 321° |
| 2026-04-22 15:34 | 36.57271 | -121.76025 | 19603 ft | 333 kts | 321° |
| 2026-04-22 15:34 | 36.59223 | -121.77570 | 19218 ft | 331 kts | 321° |
| 2026-04-22 15:34 | 36.61166 | -121.79109 | 18845 ft | 329 kts | 321° |
| 2026-04-22 15:34 | 36.62769 | -121.80380 | 18527 ft | 328 kts | 321° |
| 2026-04-22 15:35 | 36.64068 | -121.81410 | 18231 ft | 327 kts | 321° |
| 2026-04-22 15:35 | 36.65961 | -121.82912 | 17808 ft | 325 kts | 321° |
| 2026-04-22 15:35 | 36.67854 | -121.84413 | 17490 ft | 320 kts | 321° |
| 2026-04-22 15:35 | 36.69741 | -121.85912 | 17068 ft | 319 kts | 321° |
| 2026-04-22 15:36 | 36.71595 | -121.87384 | 16729 ft | 315 kts | 321° |
| 2026-04-22 15:36 | 36.73449 | -121.88844 | 16333 ft | 315 kts | 324° |
| 2026-04-22 15:36 | 36.75490 | -121.89896 | 15964 ft | 322 kts | 339° |
| 2026-04-22 15:36 | 36.77660 | -121.90493 | 15723 ft | 317 kts | 340° |
| 2026-04-22 15:37 | 36.79834 | -121.91065 | 15309 ft | 318 kts | 340° |
| 2026-04-22 15:37 | 36.81954 | -121.91626 | 14941 ft | 316 kts | 340° |
| 2026-04-22 15:37 | 36.84100 | -121.92208 | 14613 ft | 313 kts | 340° |
| 2026-04-22 15:37 | 36.86232 | -121.92794 | 14115 ft | 316 kts | 340° |
| 2026-04-22 15:38 | 36.88387 | -121.93395 | 13706 ft | 315 kts | 340° |
| 2026-04-22 15:38 | 36.92658 | -121.94587 | 12884 ft | 313 kts | 341° |
| 2026-04-22 15:38 | 36.94775 | -121.95179 | 12514 ft | 310 kts | 341° |
| 2026-04-22 15:39 | 36.96846 | -121.95867 | 12141 ft | 306 kts | 338° |
| 2026-04-22 15:39 | 36.98876 | -121.96655 | 11783 ft | 304 kts | 336° |
| 2026-04-22 15:39 | 37.00865 | -121.97453 | 11427 ft | 303 kts | 336° |
| 2026-04-22 15:39 | 37.02874 | -121.98259 | 11068 ft | 303 kts | 337° |
| 2026-04-22 15:40 | 37.04881 | -121.99059 | 10721 ft | 302 kts | 338° |
| 2026-04-22 15:40 | 37.06855 | -121.99838 | 10580 ft | 294 kts | 338° |
| 2026-04-22 15:40 | 37.08784 | -122.00595 | 10423 ft | 287 kts | 338° |
| 2026-04-22 15:40 | 37.10663 | -122.01331 | 10293 ft | 279 kts | 338° |
| 2026-04-22 15:41 | 37.12494 | -122.02048 | 10163 ft | 272 kts | 338° |
| 2026-04-22 15:41 | 37.14278 | -122.02747 | 10034 ft | 265 kts | 338° |
| 2026-04-22 15:41 | 37.16000 | -122.03422 | 9790 ft | 264 kts | 338° |
| 2026-04-22 15:41 | 37.17781 | -122.04122 | 9522 ft | 263 kts | 338° |
| 2026-04-22 15:42 | 37.19523 | -122.04807 | 9214 ft | 264 kts | 338° |
| 2026-04-22 15:42 | 37.21283 | -122.05498 | 8929 ft | 263 kts | 338° |
| 2026-04-22 15:42 | 37.23027 | -122.06181 | 8648 ft | 261 kts | 338° |
| 2026-04-22 15:42 | 37.24727 | -122.06848 | 8415 ft | 258 kts | 338° |
| 2026-04-22 15:43 | 37.26443 | -122.07521 | 8123 ft | 257 kts | 338° |
| 2026-04-22 15:43 | 37.28152 | -122.08192 | 7850 ft | 259 kts | 338° |
| 2026-04-22 15:43 | 37.29889 | -122.08878 | 7482 ft | 264 kts | 338° |
| 2026-04-22 15:43 | 37.31646 | -122.09568 | 7170 ft | 266 kts | 339° |
| 2026-04-22 15:44 | 37.33444 | -122.10220 | 6713 ft | 273 kts | 340° |
| 2026-04-22 15:44 | 37.35296 | -122.10865 | 6187 ft | 278 kts | 341° |
| 2026-04-22 15:44 | 37.37162 | -122.11510 | 5677 ft | 277 kts | 341° |
| 2026-04-22 15:44 | 37.39021 | -122.12156 | 5170 ft | 277 kts | 341° |
| 2026-04-22 15:45 | 37.40874 | -122.12802 | 4644 ft | 276 kts | 341° |
| 2026-04-22 15:45 | 37.42725 | -122.13452 | 4129 ft | 276 kts | 341° |
| 2026-04-22 15:45 | 37.44000 | -122.13900 | 3772 ft | 276 kts | 341° |
| 2026-04-22 15:45 | 37.45669 | -122.14488 | 3317 ft | 275 kts | 341° |
| 2026-04-22 15:46 | 37.47478 | -122.15124 | 3093 ft | 265 kts | 341° |
| 2026-04-22 15:46 | 37.49234 | -122.15743 | 2818 ft | 257 kts | 342° |
| 2026-04-22 15:46 | 37.50920 | -122.16337 | 2714 ft | 243 kts | 341° |
| 2026-04-22 15:46 | 37.52490 | -122.16915 | 2722 ft | 228 kts | 335° |
| 2026-04-22 15:47 | 37.53650 | -122.18075 | 2655 ft | 203 kts | 300° |
| 2026-04-22 15:47 | 37.54389 | -122.19454 | 2665 ft | 179 kts | 301° |
| 2026-04-22 15:47 | 37.55080 | -122.20776 | 2715 ft | 192 kts | 297° |
| 2026-04-22 15:47 | 37.55748 | -122.22266 | 2461 ft | 188 kts | 294° |
| 2026-04-22 15:48 | 37.56325 | -122.23638 | 2189 ft | 167 kts | 294° |
| 2026-04-22 15:48 | 37.56838 | -122.24872 | 2012 ft | 151 kts | 293° |
| 2026-04-22 15:48 | 37.57324 | -122.26044 | 1784 ft | 149 kts | 293° |
| 2026-04-22 15:48 | 37.57804 | -122.27198 | 1588 ft | 150 kts | 294° |
| 2026-04-22 15:49 | 37.58288 | -122.28362 | 1383 ft | 150 kts | 294° |
| 2026-04-22 15:49 | 37.58769 | -122.29516 | 1185 ft | 149 kts | 294° |
| 2026-04-22 15:49 | 37.59255 | -122.30685 | 990 ft | 152 kts | 294° |
| 2026-04-22 15:49 | 37.59732 | -122.31877 | 802 ft | 152 kts | 295° |
| 2026-04-22 15:50 | 37.60233 | -122.33052 | 571 ft | 150 kts | 296° |
| 2026-04-22 15:50 | 37.60713 | -122.34205 | 413 ft | 152 kts | 298° |
| 2026-04-22 15:50 | 37.61218 | -122.35389 | 146 ft | 153 kts | 297° |
| 2026-04-22 15:50 | 37.61676 | -122.36483 | 16 ft | 130 kts | 297° |
| 2026-04-22 15:51 | 37.61998 | -122.37250 | 15 ft | 68 kts | 297° |
| 2026-04-22 15:51 | 37.62178 | -122.37676 | 20 ft | 34 kts | 293° |
| 2026-04-22 15:51 | 37.62215 | -122.37954 | 24 ft | 30 kts | 276° |
| 2026-04-22 15:51 | 37.62227 | -122.38111 | 23 ft | 9 kts | 275° |
| 2026-04-22 15:52 | 37.62228 | -122.38188 | 22 ft | 9 kts | 265° |
| 2026-04-22 15:52 | 37.62207 | -122.38272 | 21 ft | 11 kts | 242° |
| 2026-04-22 15:52 | 37.62138 | -122.38317 | 21 ft | 11 kts | 198° |
| 2026-04-22 15:52 | 37.62063 | -122.38346 | 23 ft | 11 kts | 198° |
| 2026-04-22 15:53 | 37.62022 | -122.38365 | 21 ft | 4 kts | 206° |
| 2026-04-22 15:53 | 37.61997 | -122.38387 | 20 ft | 5 kts | 225° |
| 2026-04-22 15:53 | 37.61985 | -122.38404 | 19 ft | 0 kts | 230° |